createdAt,value
2018-10-18T00:00:23.291Z,27.70
2018-10-18T00:02:51.476Z,28.63
2018-10-18T00:05:19.618Z,29.53
2018-10-18T00:07:47.786Z,28.50
2018-10-18T00:10:15.930Z,27.97
2018-10-18T00:12:44.079Z,27.93
2018-10-18T00:15:12.359Z,27.90
2018-10-18T00:17:47.478Z,29.00
2018-10-18T00:20:16.639Z,28.67
2018-10-18T00:22:45.281Z,29.20
2018-10-18T00:25:13.750Z,27.73
2018-10-18T00:27:41.921Z,28.77
2018-10-18T00:30:12.007Z,27.67
2018-10-18T00:32:40.453Z,28.50
2018-10-18T00:35:08.673Z,26.80
2018-10-18T00:37:37.271Z,28.17
2018-10-18T00:40:05.934Z,26.50
2018-10-18T00:42:34.134Z,27.67
2018-10-18T00:45:02.311Z,28.67
2018-10-18T00:47:30.477Z,26.83
2018-10-18T00:49:58.659Z,29.10
2018-10-18T00:52:26.779Z,28.20
2018-10-18T00:54:54.952Z,28.13
2018-10-18T00:57:23.110Z,27.03
2018-10-18T00:59:51.307Z,26.83
2018-10-18T01:02:19.499Z,27.87
2018-10-18T01:04:47.583Z,28.93
2018-10-18T01:07:15.810Z,27.70
2018-10-18T01:09:44.030Z,28.30
2018-10-18T01:12:12.246Z,29.53
2018-10-18T01:14:40.330Z,28.93
2018-10-18T01:17:08.472Z,29.60
2018-10-18T01:19:37.721Z,27.57
2018-10-18T01:22:06.911Z,29.63
2018-10-18T01:24:36.026Z,28.83
2018-10-18T01:27:04.351Z,29.40
2018-10-18T01:29:32.521Z,27.13
2018-10-18T01:32:00.688Z,29.40
2018-10-18T01:34:28.939Z,27.20
2018-10-18T01:36:57.126Z,29.30
2018-10-18T01:39:25.287Z,27.43
2018-10-18T01:41:53.473Z,26.90
2018-10-18T01:44:21.670Z,29.70
2018-10-18T01:46:49.851Z,26.40
2018-10-18T01:49:18.035Z,25.23
2018-10-18T01:51:46.198Z,26.60
2018-10-18T01:54:14.460Z,24.70
2018-10-18T01:56:42.527Z,26.33
2018-10-18T01:59:10.681Z,25.87
2018-10-18T02:01:38.844Z,26.50
2018-10-18T02:04:07.059Z,24.73
2018-10-18T02:06:35.230Z,17.90
2018-10-18T02:09:03.564Z,23.87
2018-10-18T02:11:31.720Z,23.30
2018-10-18T02:13:59.876Z,23.80
2018-10-18T02:16:28.102Z,23.60
2018-10-18T02:18:56.287Z,25.50
2018-10-18T02:21:24.421Z,24.17
2018-10-18T02:23:52.621Z,23.30
2018-10-18T02:26:20.767Z,23.60
2018-10-18T02:28:48.903Z,22.50
2018-10-18T02:31:17.059Z,23.70
2018-10-18T02:33:45.275Z,21.33
2018-10-18T02:36:13.498Z,23.37
2018-10-18T02:38:41.684Z,24.50
2018-10-18T02:41:09.838Z,23.63
2018-10-18T02:43:37.985Z,24.57
2018-10-18T02:46:06.151Z,23.30
2018-10-18T02:48:34.303Z,24.43
2018-10-18T02:51:02.488Z,23.53
2018-10-18T02:53:30.626Z,24.07
2018-10-18T02:55:58.781Z,23.07
2018-10-18T02:58:26.947Z,23.80
2018-10-18T03:00:55.123Z,23.07
2018-10-18T03:03:23.279Z,23.87
2018-10-18T03:05:51.423Z,24.07
2018-10-18T03:08:19.587Z,22.97
2018-10-18T03:10:47.795Z,23.90
2018-10-18T03:13:15.939Z,25.13
2018-10-18T03:15:44.095Z,23.77
2018-10-18T03:18:12.330Z,23.50
2018-10-18T03:20:40.494Z,23.00
2018-10-18T03:23:08.655Z,23.40
2018-10-18T03:25:36.849Z,24.97
2018-10-18T03:28:05.111Z,24.13
2018-10-18T03:30:33.278Z,23.63
2018-10-18T03:33:01.455Z,22.80
2018-10-18T03:35:29.598Z,24.50
2018-10-18T03:37:57.753Z,23.77
2018-10-18T03:40:25.910Z,24.90
2018-10-18T03:42:54.088Z,24.70
2018-10-18T03:45:22.247Z,25.03
2018-10-18T03:47:50.411Z,26.10
2018-10-18T03:50:18.571Z,22.87
2018-10-18T03:52:46.766Z,22.97
2018-10-18T03:55:14.947Z,24.63
2018-10-18T03:57:43.146Z,24.37
2018-10-18T04:00:11.361Z,25.10
2018-10-18T04:02:39.434Z,23.53
2018-10-18T04:05:08.403Z,24.77
2018-10-18T04:07:36.665Z,23.40
2018-10-18T04:10:05.318Z,25.00
2018-10-18T04:12:33.563Z,23.67
2018-10-18T04:15:01.694Z,24.83
2018-10-18T04:17:29.895Z,24.63
2018-10-18T04:19:58.034Z,23.83
2018-10-18T04:22:26.219Z,24.93
2018-10-18T04:24:54.382Z,23.00
2018-10-18T04:27:22.527Z,24.80
2018-10-18T04:29:50.703Z,23.37
2018-10-18T04:32:18.851Z,25.50
2018-10-18T04:34:47.079Z,24.87
2018-10-18T04:37:15.242Z,23.73
2018-10-18T04:39:43.367Z,24.30
2018-10-18T04:42:11.578Z,24.33
2018-10-18T04:44:39.754Z,23.20
2018-10-18T04:47:07.931Z,23.53
2018-10-18T04:49:36.079Z,23.40
2018-10-18T04:52:04.226Z,23.13
2018-10-18T04:54:32.418Z,22.30
2018-10-18T04:57:00.666Z,22.40
2018-10-18T04:59:28.750Z,22.57
2018-10-18T05:01:57.010Z,22.80
2018-10-18T05:04:25.150Z,21.37
2018-10-18T05:06:53.331Z,22.70
2018-10-18T05:09:21.479Z,21.73
2018-10-18T05:11:49.647Z,22.17
2018-10-18T05:14:17.796Z,21.20
2018-10-18T05:16:45.956Z,21.10
2018-10-18T05:19:14.214Z,16.13
2018-10-18T05:21:42.414Z,19.50
2018-10-18T05:24:10.584Z,18.20
2018-10-18T05:26:38.778Z,18.00
2018-10-18T05:29:06.936Z,16.63
2018-10-18T05:31:35.179Z,17.30
2018-10-18T05:34:03.293Z,15.77
2018-10-18T05:36:31.433Z,15.23
2018-10-18T05:38:59.588Z,15.97
2018-10-18T05:41:27.796Z,15.73
2018-10-18T05:43:55.971Z,15.43
2018-10-18T05:46:24.115Z,15.53
2018-10-18T05:48:52.313Z,15.60
2018-10-18T05:51:20.484Z,15.43
2018-10-18T05:53:48.781Z,15.80
2018-10-18T05:56:16.798Z,16.73
2018-10-18T05:58:44.954Z,16.00
2018-10-18T06:01:13.142Z,14.80
2018-10-18T06:03:41.236Z,14.87
2018-10-18T06:06:09.386Z,15.37
2018-10-18T06:08:37.563Z,13.60
2018-10-18T06:11:17.347Z,14.67
2018-10-18T06:13:45.527Z,13.67
2018-10-18T06:16:13.697Z,14.20
2018-10-18T06:18:41.895Z,15.37
2018-10-18T06:21:10.103Z,16.33
2018-10-18T06:23:38.239Z,14.80
2018-10-18T06:26:06.636Z,16.77
2018-10-18T06:28:34.834Z,16.63
2018-10-18T06:31:03.032Z,16.23
2018-10-18T06:33:31.212Z,15.50
2018-10-18T06:35:59.453Z,15.30
2018-10-18T06:38:27.615Z,15.93
2018-10-18T06:40:55.769Z,15.13
2018-10-18T06:43:23.919Z,14.10
2018-10-18T06:45:52.203Z,15.70
2018-10-18T06:48:20.373Z,15.40
2018-10-18T06:50:48.554Z,14.00
2018-10-18T06:53:16.698Z,14.60
2018-10-18T06:55:44.954Z,14.80
2018-10-18T06:58:13.098Z,14.37
2018-10-18T07:00:41.279Z,13.87
2018-10-18T07:03:09.462Z,13.40
2018-10-18T07:05:37.688Z,14.70
2018-10-18T07:08:05.838Z,13.33
2018-10-18T07:10:33.985Z,13.50
2018-10-18T07:13:02.267Z,13.70
2018-10-18T07:15:30.422Z,13.47
2018-10-18T07:17:58.585Z,12.37
2018-10-18T07:20:26.788Z,11.80
2018-10-18T07:22:54.979Z,13.23
2018-10-18T07:25:23.243Z,13.80
2018-10-18T07:27:51.327Z,12.00
2018-10-18T07:30:19.581Z,12.50
2018-10-18T07:32:47.657Z,12.20
2018-10-18T07:35:15.842Z,12.10
2018-10-18T07:37:43.990Z,12.37
2018-10-18T07:40:13.938Z,11.50
2018-10-18T07:42:42.147Z,11.80
2018-10-18T07:45:11.355Z,12.50
2018-10-18T07:47:39.652Z,11.93
2018-10-18T07:50:07.845Z,12.03
2018-10-18T07:52:36.406Z,10.40
2018-10-18T07:55:05.083Z,10.73
2018-10-18T07:57:33.234Z,9.20
2018-10-18T08:00:01.507Z,10.63
2018-10-18T08:02:29.566Z,10.20
2018-10-18T08:04:57.728Z,10.50
2018-10-18T08:07:25.915Z,11.10
2018-10-18T08:09:54.098Z,9.50
2018-10-18T08:12:22.219Z,10.50
2018-10-18T08:14:50.379Z,10.10
2018-10-18T08:17:18.549Z,8.87
2018-10-18T08:19:46.666Z,9.23
2018-10-18T08:22:14.793Z,9.97
2018-10-18T08:24:42.946Z,11.20
2018-10-18T08:27:11.157Z,8.97
2018-10-18T08:29:39.294Z,10.30
2018-10-18T08:32:07.447Z,9.67
2018-10-18T08:34:35.599Z,9.90
2018-10-18T08:37:03.839Z,9.60
2018-10-18T08:39:31.946Z,9.03
2018-10-18T08:42:00.091Z,8.03
2018-10-18T08:44:28.275Z,6.67
2018-10-18T08:46:56.370Z,6.47
2018-10-18T08:49:24.510Z,8.17
2018-10-18T08:51:52.642Z,8.50
2018-10-18T08:54:20.806Z,6.67
2018-10-18T08:56:49.006Z,7.40
2018-10-18T08:59:17.189Z,8.00
2018-10-18T09:01:45.571Z,5.87
2018-10-18T09:04:13.429Z,5.57
2018-10-18T09:06:41.590Z,5.97
2018-10-18T09:09:10.106Z,4.00
2018-10-18T09:11:38.219Z,5.20
2018-10-18T09:14:06.835Z,5.63
2018-10-18T09:16:34.969Z,7.20
2018-10-18T09:19:03.472Z,6.80
2018-10-18T09:21:31.628Z,5.07
2018-10-18T09:23:59.768Z,6.47
2018-10-18T09:26:27.913Z,4.37
2018-10-18T09:28:56.060Z,4.47
2018-10-18T09:31:24.243Z,7.03
2018-10-18T09:33:52.414Z,5.07
2018-10-18T09:36:20.591Z,4.30
2018-10-18T09:38:48.975Z,7.10
2018-10-18T09:41:17.159Z,7.97
2018-10-18T09:43:45.310Z,4.90
2018-10-18T09:46:13.457Z,6.80
2018-10-18T09:48:41.595Z,4.43
2018-10-18T09:51:09.769Z,5.03
2018-10-18T09:53:37.946Z,6.27
2018-10-18T09:56:06.142Z,5.07
2018-10-18T09:58:34.264Z,6.40
2018-10-18T10:01:07.905Z,6.87
2018-10-18T10:03:35.991Z,6.30
2018-10-18T10:06:04.215Z,5.73
2018-10-18T10:08:32.368Z,5.57
2018-10-18T10:11:00.518Z,6.13
2018-10-18T10:13:28.760Z,6.80
2018-10-18T10:15:56.819Z,5.30
2018-10-18T10:18:24.967Z,6.33
2018-10-18T10:20:53.106Z,3.90
2018-10-18T10:23:21.242Z,5.00
2018-10-18T10:25:49.384Z,6.70
2018-10-18T10:28:17.562Z,6.67
2018-10-18T10:30:45.738Z,6.33
2018-10-18T10:33:13.902Z,6.33
2018-10-18T10:35:42.051Z,5.73
2018-10-18T10:38:10.143Z,5.30
2018-10-18T10:40:38.275Z,5.93
2018-10-18T10:43:06.487Z,5.27
2018-10-18T10:45:34.630Z,5.30
2018-10-18T10:48:02.869Z,5.17
2018-10-18T10:50:30.983Z,5.10
2018-10-18T10:52:59.127Z,4.77
2018-10-18T10:55:27.257Z,5.77
2018-10-18T10:57:55.438Z,4.37
2018-10-18T11:01:28.212Z,3.50
2018-10-18T11:03:59.462Z,3.57
2018-10-18T11:06:27.599Z,2.77
2018-10-18T11:08:55.861Z,3.30
2018-10-18T11:11:24.342Z,3.40
2018-10-18T11:13:52.496Z,3.33
2018-10-18T11:16:20.624Z,2.73
2018-10-18T11:18:48.762Z,3.33
2018-10-18T11:21:18.015Z,3.47
2018-10-18T11:23:46.115Z,3.97
2018-10-18T11:26:14.429Z,4.67
2018-10-18T11:28:42.417Z,5.23
2018-10-18T11:31:10.561Z,4.37
2018-10-18T11:33:38.736Z,6.53
2018-10-18T11:36:06.976Z,3.80
2018-10-18T11:38:35.011Z,5.50
2018-10-18T11:41:03.202Z,4.37
2018-10-18T11:43:31.362Z,3.73
2018-10-18T11:45:59.536Z,4.40
2018-10-18T11:48:27.695Z,3.47
2018-10-18T11:50:55.848Z,4.17
2018-10-18T11:53:23.982Z,4.50
2018-10-18T11:55:52.158Z,4.53
2018-10-18T11:58:20.275Z,4.20
2018-10-18T12:00:48.470Z,5.90
2018-10-18T12:03:16.719Z,5.83
2018-10-18T12:05:44.900Z,8.30
2018-10-18T12:08:13.293Z,8.07
2018-10-18T12:10:41.201Z,5.40
2018-10-18T12:13:09.347Z,7.33
2018-10-18T12:15:37.565Z,6.43
2018-10-18T12:18:05.770Z,5.97
2018-10-18T12:20:33.942Z,3.43
2018-10-18T12:23:02.120Z,2.37
2018-10-18T12:25:30.270Z,2.40
2018-10-18T12:27:58.434Z,2.90
2018-10-18T12:30:26.624Z,3.10
2018-10-18T12:32:54.778Z,3.50
2018-10-18T12:35:22.940Z,2.60
2018-10-18T12:37:51.094Z,2.47
2018-10-18T12:40:19.384Z,2.80
2018-10-18T12:42:48.607Z,2.17
2018-10-18T12:45:16.797Z,1.90
2018-10-18T12:47:44.958Z,2.30
2018-10-18T12:50:13.205Z,1.80
2018-10-18T12:52:41.291Z,2.30
2018-10-18T12:55:09.484Z,2.17
2018-10-18T12:57:37.725Z,3.23
2018-10-18T13:00:07.542Z,2.80
2018-10-18T13:02:35.661Z,2.70
2018-10-18T13:05:04.028Z,2.87
2018-10-18T13:07:32.194Z,3.17
2018-10-18T13:10:00.366Z,3.50
2018-10-18T13:12:28.655Z,3.20
2018-10-18T13:14:56.737Z,2.87
2018-10-18T13:17:24.903Z,3.23
2018-10-18T13:19:53.086Z,2.40
2018-10-18T13:22:21.218Z,2.67
2018-10-18T13:24:49.359Z,2.73
2018-10-18T13:27:17.505Z,3.10
2018-10-18T13:29:45.655Z,2.60
2018-10-18T13:32:13.944Z,3.43
2018-10-18T13:34:42.087Z,3.57
2018-10-18T13:37:10.253Z,3.27
2018-10-18T13:39:38.394Z,4.10
2018-10-18T13:42:06.641Z,4.07
2018-10-18T13:44:34.721Z,2.17
2018-10-18T13:47:02.884Z,2.50
2018-10-18T13:49:31.065Z,2.73
2018-10-18T13:51:59.294Z,3.17
2018-10-18T13:54:27.454Z,2.80
2018-10-18T13:56:55.758Z,2.60
2018-10-18T13:59:35.652Z,2.50
2018-10-18T14:02:03.909Z,2.43
2018-10-18T14:04:31.909Z,2.33
2018-10-18T14:07:00.051Z,2.53
2018-10-18T14:09:28.229Z,1.93
2018-10-18T14:11:56.465Z,2.17
2018-10-18T14:14:24.642Z,2.17
2018-10-18T14:16:52.818Z,2.13
2018-10-18T14:19:20.994Z,2.47
2018-10-18T14:21:49.160Z,2.27
2018-10-18T14:24:17.327Z,2.67
2018-10-18T14:26:45.482Z,2.10
2018-10-18T14:29:13.675Z,2.53
2018-10-18T14:31:41.863Z,2.40
2018-10-18T14:34:10.256Z,2.30
2018-10-18T14:36:38.414Z,2.40
2018-10-18T14:39:07.770Z,2.73
2018-10-18T14:41:36.296Z,2.30
2018-10-18T14:44:04.692Z,2.63
2018-10-18T14:46:32.817Z,2.07
2018-10-18T14:49:01.015Z,2.53
2018-10-18T14:51:29.174Z,2.50
2018-10-18T14:53:57.352Z,2.33
2018-10-18T14:56:25.815Z,2.40
2018-10-18T14:58:53.971Z,2.47
2018-10-18T15:01:22.118Z,2.57
2018-10-18T15:03:50.274Z,2.40
2018-10-18T15:06:18.484Z,2.77
2018-10-18T15:08:46.649Z,2.40
2018-10-18T15:11:14.968Z,3.67
2018-10-18T15:13:43.040Z,3.63
2018-10-18T15:16:11.229Z,2.67
2018-10-18T15:18:39.418Z,3.03
2018-10-18T15:21:07.797Z,2.80
2018-10-18T15:23:35.967Z,2.70
2018-10-18T15:26:05.277Z,2.60
2018-10-18T15:28:33.430Z,2.47
2018-10-18T15:31:01.636Z,3.57
2018-10-18T15:33:29.815Z,3.70
2018-10-18T15:35:58.007Z,2.63
2018-10-18T15:38:26.340Z,3.03
2018-10-18T15:40:54.437Z,2.57
2018-10-18T15:43:22.585Z,2.90
2018-10-18T15:45:50.750Z,2.50
2018-10-18T15:48:19.087Z,2.60
2018-10-18T15:50:47.246Z,2.90
2018-10-18T15:53:15.469Z,3.20
2018-10-18T15:55:43.575Z,3.57
2018-10-18T15:58:11.755Z,3.40
2018-10-18T16:00:39.923Z,4.17
2018-10-18T16:03:08.147Z,3.07
2018-10-18T16:05:36.277Z,3.30
2018-10-18T16:08:04.679Z,4.00
2018-10-18T16:10:32.834Z,2.90
2018-10-18T16:13:01.283Z,4.40
2018-10-18T16:15:29.450Z,3.90
2018-10-18T16:17:57.767Z,5.27
2018-10-18T16:20:25.807Z,4.57
2018-10-18T16:22:54.026Z,5.50
2018-10-18T16:25:22.159Z,4.87
2018-10-18T16:27:50.325Z,4.87
2018-10-18T16:30:18.479Z,5.13
2018-10-18T16:32:46.663Z,5.00
2018-10-18T16:35:14.837Z,5.47
2018-10-18T16:37:42.972Z,6.23
2018-10-18T16:40:11.155Z,5.87
2018-10-18T16:42:39.354Z,6.00
2018-10-18T16:45:09.346Z,6.10
2018-10-18T16:47:37.549Z,5.80
2018-10-18T16:50:05.708Z,6.70
2018-10-18T16:52:33.900Z,6.43
2018-10-18T16:55:02.068Z,7.43
2018-10-18T16:57:30.295Z,6.03
2018-10-18T16:59:58.464Z,6.73
2018-10-18T17:02:26.591Z,7.07
2018-10-18T17:04:54.743Z,6.20
2018-10-18T17:07:22.905Z,5.27
2018-10-18T17:09:51.091Z,6.10
2018-10-18T17:12:19.377Z,5.28
2018-10-18T17:14:47.478Z,5.37
2018-10-18T17:17:15.641Z,5.67
2018-10-18T17:19:43.854Z,5.60
2018-10-18T17:22:12.050Z,5.10
2018-10-18T17:24:40.246Z,5.90
2018-10-18T17:27:08.527Z,5.10
2018-10-18T17:29:36.595Z,3.90
2018-10-18T17:32:04.833Z,4.87
2018-10-18T17:34:33.031Z,3.70
2018-10-18T17:37:01.200Z,3.90
2018-10-18T17:39:29.436Z,3.70
2018-10-18T17:41:57.735Z,3.90
2018-10-18T17:44:25.819Z,3.73
2018-10-18T17:46:53.990Z,3.50
2018-10-18T17:49:22.179Z,3.50
2018-10-18T17:51:50.368Z,3.20
2018-10-18T17:54:18.615Z,3.07
2018-10-18T17:56:46.710Z,3.70
2018-10-18T17:59:14.878Z,2.90
2018-10-18T18:01:43.202Z,3.40
2018-10-18T18:04:11.486Z,3.33
2018-10-18T18:06:39.757Z,3.67
2018-10-18T18:09:07.784Z,3.93
2018-10-18T18:11:35.987Z,4.03
2018-10-18T18:14:04.165Z,3.87
2018-10-18T18:16:32.512Z,4.43
2018-10-18T18:19:01.062Z,4.10
2018-10-18T18:21:29.229Z,4.20
2018-10-18T18:23:57.390Z,4.40
2018-10-18T18:26:32.602Z,3.73
2018-10-18T18:28:53.737Z,4.43
2018-10-18T18:31:21.975Z,4.40
2018-10-18T18:33:50.135Z,4.50
2018-10-18T18:36:18.366Z,4.90
2018-10-18T18:38:46.577Z,4.83
2018-10-18T18:41:14.805Z,4.53
2018-10-18T18:43:42.945Z,4.30
2018-10-18T18:46:11.109Z,5.77
2018-10-18T18:48:39.327Z,5.10
2018-10-18T18:51:07.600Z,4.80
2018-10-18T18:53:35.823Z,4.73
2018-10-18T18:56:04.103Z,5.27
2018-10-18T18:58:32.275Z,5.27
2018-10-18T19:01:00.492Z,5.70
2018-10-18T19:03:28.736Z,4.83
2018-10-18T19:05:56.889Z,5.43
2018-10-18T19:08:25.059Z,5.60
2018-10-18T19:10:53.258Z,5.33
2018-10-18T19:13:21.572Z,5.60
2018-10-18T19:15:49.703Z,5.30
2018-10-18T19:18:17.859Z,5.73
2018-10-18T19:20:46.015Z,5.30
2018-10-18T19:23:14.238Z,4.90
2018-10-18T19:25:42.359Z,4.50
2018-10-18T19:28:10.524Z,3.47
2018-10-18T19:30:38.662Z,4.40
2018-10-18T19:33:06.803Z,4.43
2018-10-18T19:35:34.971Z,4.80
2018-10-18T19:38:03.153Z,4.53
2018-10-18T19:40:31.295Z,4.30
2018-10-18T19:42:59.442Z,4.43
2018-10-18T19:45:27.669Z,5.07
2018-10-18T19:47:55.785Z,4.70
2018-10-18T19:50:23.985Z,3.30
2018-10-18T19:52:52.360Z,4.60
2018-10-18T19:55:20.469Z,4.60
2018-10-18T19:57:48.627Z,4.17
2018-10-18T20:00:16.829Z,4.67
2018-10-18T20:02:44.966Z,4.80
2018-10-18T20:05:13.124Z,4.60
2018-10-18T20:07:41.380Z,4.57
2018-10-18T20:10:09.878Z,4.43
2018-10-18T20:12:38.056Z,4.40
2018-10-18T20:15:06.547Z,4.07
2018-10-18T20:17:34.695Z,4.90
2018-10-18T20:20:03.288Z,4.60
2018-10-18T20:22:31.419Z,4.10
2018-10-18T20:24:59.714Z,4.33
2018-10-18T20:27:27.742Z,4.70
2018-10-18T20:29:55.936Z,3.77
2018-10-18T20:32:24.094Z,4.80
2018-10-18T20:34:52.213Z,4.27
2018-10-18T20:37:20.367Z,4.43
2018-10-18T20:39:48.592Z,4.27
2018-10-18T20:42:16.681Z,4.40
2018-10-18T20:44:44.851Z,5.00
2018-10-18T20:47:13.185Z,4.23
2018-10-18T20:49:41.362Z,4.43
2018-10-18T20:52:09.634Z,4.17
2018-10-18T20:54:37.794Z,5.70
2018-10-18T20:57:06.168Z,4.43
2018-10-18T20:59:34.397Z,4.80
2018-10-18T21:02:02.571Z,5.00
2018-10-18T21:04:30.730Z,4.90
2018-10-18T21:06:58.877Z,5.50
2018-10-18T21:09:27.039Z,5.17
2018-10-18T21:11:55.199Z,4.60
2018-10-18T21:14:23.378Z,4.37
2018-10-18T21:16:51.560Z,5.10
2018-10-18T21:19:19.711Z,4.50
2018-10-18T21:21:47.899Z,5.07
2018-10-18T21:24:16.042Z,5.17
2018-10-18T21:26:44.202Z,4.83
2018-10-18T21:29:12.529Z,4.90
2018-10-18T21:31:40.547Z,5.00
2018-10-18T21:34:08.731Z,4.40
2018-10-18T21:36:36.874Z,4.83
2018-10-18T21:39:06.518Z,5.07
2018-10-18T21:41:34.673Z,5.20
2018-10-18T21:44:02.870Z,4.10
2018-10-18T21:46:31.041Z,4.60
2018-10-18T21:48:59.267Z,5.40
2018-10-18T21:51:27.387Z,4.43
2018-10-18T21:53:55.555Z,5.40
2018-10-18T21:56:23.718Z,5.00
2018-10-18T21:58:51.901Z,5.63
2018-10-18T22:01:20.062Z,5.30
2018-10-18T22:03:48.230Z,5.40
2018-10-18T22:06:16.402Z,5.27
2018-10-18T22:08:44.590Z,6.20
2018-10-18T22:11:12.862Z,5.60
2018-10-18T22:13:40.927Z,5.50
2018-10-18T22:16:09.111Z,6.67
2018-10-18T22:18:37.271Z,6.10
2018-10-18T22:21:05.798Z,5.10
2018-10-18T22:23:33.966Z,6.10
2018-10-18T22:26:02.159Z,6.50
2018-10-18T22:28:30.323Z,6.77
2018-10-18T22:30:58.495Z,7.33
2018-10-18T22:33:26.692Z,6.40
2018-10-18T22:35:55.123Z,6.63
2018-10-18T22:38:23.298Z,5.33
2018-10-18T22:40:51.476Z,6.80
2018-10-18T22:43:19.638Z,6.97
2018-10-18T22:45:53.963Z,7.93
2018-10-18T22:48:22.118Z,7.00
2018-10-18T22:50:50.292Z,6.80
2018-10-18T22:53:18.460Z,7.50
2018-10-18T22:55:46.630Z,7.00
2018-10-18T22:58:14.791Z,6.80
2018-10-18T23:00:47.444Z,7.40
2018-10-18T23:03:16.381Z,7.50
2018-10-18T23:05:44.867Z,6.53
2018-10-18T23:08:13.314Z,7.73
2018-10-18T23:10:41.481Z,7.87
2018-10-18T23:13:09.783Z,5.90
2018-10-18T23:15:37.950Z,7.07
2018-10-18T23:18:06.534Z,8.50
2018-10-18T23:20:34.701Z,8.00
2018-10-18T23:23:02.943Z,7.43
2018-10-18T23:25:31.046Z,7.77
2018-10-18T23:27:59.215Z,8.00
2018-10-18T23:30:27.374Z,8.50
2018-10-18T23:32:55.715Z,8.20
2018-10-18T23:35:23.881Z,8.27
2018-10-18T23:37:52.078Z,7.50
2018-10-18T23:40:20.430Z,8.57
2018-10-18T23:42:48.611Z,8.20
2018-10-18T23:45:16.845Z,8.00
2018-10-18T23:47:44.947Z,7.47
2018-10-18T23:50:13.119Z,9.10
2018-10-18T23:52:41.294Z,8.27
2018-10-18T23:55:09.468Z,8.10
2018-10-18T23:57:37.640Z,8.10
